createdAt,value
2017-12-31T00:00:48.731Z,18.17
2017-12-31T00:03:16.529Z,15.73
2017-12-31T00:05:44.258Z,17.07
2017-12-31T00:08:12.031Z,17.13
2017-12-31T00:10:39.972Z,18.50
2017-12-31T00:13:07.908Z,19.07
2017-12-31T00:15:35.663Z,20.30
2017-12-31T00:18:04.254Z,18.53
2017-12-31T00:20:32.324Z,15.13
2017-12-31T00:23:00.185Z,18.57
2017-12-31T00:25:27.933Z,17.20
2017-12-31T00:27:55.733Z,17.30
2017-12-31T00:30:23.715Z,18.13
2017-12-31T00:32:51.659Z,16.93
2017-12-31T00:35:19.368Z,19.63
2017-12-31T00:37:47.204Z,18.00
2017-12-31T00:40:14.899Z,17.67
2017-12-31T00:42:42.704Z,15.70
2017-12-31T00:45:10.893Z,16.10
2017-12-31T00:47:38.632Z,16.77
2017-12-31T00:50:06.629Z,17.87
2017-12-31T00:52:34.560Z,17.10
2017-12-31T00:55:02.469Z,16.77
2017-12-31T00:57:30.178Z,18.00
2017-12-31T00:59:57.893Z,16.57
2017-12-31T01:02:25.647Z,18.13
2017-12-31T01:04:54.619Z,18.70
2017-12-31T01:07:22.621Z,16.83
2017-12-31T01:09:51.237Z,18.77
2017-12-31T01:12:19.083Z,19.93
2017-12-31T01:14:46.764Z,20.27
2017-12-31T01:17:14.599Z,18.60
2017-12-31T01:19:42.347Z,18.20
2017-12-31T01:22:10.112Z,17.60
2017-12-31T01:24:38.091Z,18.10
2017-12-31T01:27:05.859Z,18.30
2017-12-31T01:29:33.731Z,19.50
2017-12-31T01:32:01.650Z,17.20
2017-12-31T01:34:29.671Z,18.50
2017-12-31T01:36:57.414Z,18.90
2017-12-31T01:39:25.129Z,19.43
2017-12-31T01:41:52.794Z,19.30
2017-12-31T01:44:20.576Z,17.87
2017-12-31T01:46:48.270Z,18.00
2017-12-31T01:49:16.261Z,16.97
2017-12-31T01:51:44.034Z,18.17
2017-12-31T01:54:12.113Z,17.20
2017-12-31T01:56:39.779Z,16.40
2017-12-31T01:59:07.496Z,16.27
2017-12-31T02:01:36.107Z,17.50
2017-12-31T02:04:03.836Z,17.60
2017-12-31T02:06:31.589Z,18.90
2017-12-31T02:08:59.281Z,18.70
2017-12-31T02:11:27.023Z,17.20
2017-12-31T02:13:54.750Z,18.00
2017-12-31T02:16:22.469Z,19.53
2017-12-31T02:18:50.236Z,18.50
2017-12-31T02:21:17.989Z,18.90
2017-12-31T02:23:46.001Z,19.07
2017-12-31T02:26:13.753Z,19.93
2017-12-31T02:28:41.485Z,19.80
2017-12-31T02:31:09.381Z,20.30
2017-12-31T02:33:37.250Z,19.20
2017-12-31T02:36:05.472Z,17.40
2017-12-31T02:38:33.243Z,18.27
2017-12-31T02:41:01.017Z,19.00
2017-12-31T02:43:28.703Z,17.80
2017-12-31T02:45:56.419Z,16.70
2017-12-31T02:48:24.432Z,18.30
2017-12-31T02:50:52.226Z,18.50
2017-12-31T02:53:20.294Z,17.50
2017-12-31T02:55:47.970Z,17.60
2017-12-31T02:58:15.655Z,17.87
2017-12-31T03:00:43.662Z,17.30
2017-12-31T03:03:11.519Z,22.80
2017-12-31T03:05:39.295Z,19.93
2017-12-31T03:08:07.045Z,19.13
2017-12-31T03:10:34.955Z,20.50
2017-12-31T03:13:02.700Z,21.00
2017-12-31T03:15:30.378Z,18.90
2017-12-31T03:17:58.111Z,19.40
2017-12-31T03:20:26.220Z,20.27
2017-12-31T03:22:53.996Z,18.07
2017-12-31T03:25:21.751Z,18.37
2017-12-31T03:27:49.466Z,18.23
2017-12-31T03:30:17.146Z,17.23
2017-12-31T03:32:44.921Z,16.93
2017-12-31T03:35:13.092Z,19.67
2017-12-31T03:37:41.072Z,17.20
2017-12-31T03:40:08.953Z,17.93
2017-12-31T03:42:36.716Z,16.43
2017-12-31T03:45:04.398Z,16.30
2017-12-31T03:47:32.260Z,15.10
2017-12-31T03:50:00.212Z,15.27
2017-12-31T03:52:28.286Z,14.20
2017-12-31T03:54:56.462Z,15.97
2017-12-31T03:57:24.142Z,17.13
2017-12-31T03:59:51.896Z,16.30
2017-12-31T04:02:19.678Z,17.53
2017-12-31T04:04:48.236Z,16.93
2017-12-31T04:07:16.987Z,16.80
2017-12-31T04:09:44.700Z,17.73
2017-12-31T04:12:12.551Z,15.93
2017-12-31T04:14:40.228Z,15.60
2017-12-31T04:17:07.977Z,16.87
2017-12-31T04:19:35.816Z,13.20
2017-12-31T04:22:03.744Z,15.43
2017-12-31T04:24:31.517Z,15.33
2017-12-31T04:26:59.327Z,12.23
2017-12-31T04:29:27.434Z,12.97
2017-12-31T04:31:55.389Z,13.07
2017-12-31T04:34:23.458Z,14.47
2017-12-31T04:36:51.203Z,11.23
2017-12-31T04:39:19.080Z,10.80
2017-12-31T04:41:46.958Z,10.93
2017-12-31T04:44:15.032Z,9.60
2017-12-31T04:46:42.744Z,9.27
2017-12-31T04:49:10.584Z,7.57
2017-12-31T04:51:38.246Z,7.30
2017-12-31T04:54:05.962Z,7.60
2017-12-31T04:56:33.683Z,5.07
2017-12-31T04:59:01.511Z,5.33
2017-12-31T05:01:29.488Z,4.00
2017-12-31T05:03:57.376Z,5.70
2017-12-31T05:06:26.201Z,5.80
2017-12-31T05:08:54.238Z,5.63
2017-12-31T05:11:21.986Z,4.87
2017-12-31T05:13:50.359Z,5.03
2017-12-31T05:16:18.194Z,5.20
2017-12-31T05:18:46.105Z,4.53
2017-12-31T05:21:13.839Z,3.53
2017-12-31T05:23:41.611Z,2.60
2017-12-31T05:26:09.662Z,3.37
2017-12-31T05:28:37.385Z,4.10
2017-12-31T05:31:05.396Z,4.30
2017-12-31T05:33:33.300Z,3.77
2017-12-31T05:36:01.063Z,3.00
2017-12-31T05:38:28.860Z,3.90
2017-12-31T05:40:56.980Z,5.30
2017-12-31T05:43:24.898Z,4.67
2017-12-31T05:45:52.717Z,3.87
2017-12-31T05:48:20.458Z,2.23
2017-12-31T05:50:48.457Z,2.20
2017-12-31T05:53:16.408Z,1.90
2017-12-31T05:55:44.116Z,5.23
2017-12-31T05:58:11.848Z,5.97
2017-12-31T06:00:39.721Z,6.40
2017-12-31T06:03:07.630Z,5.70
2017-12-31T06:05:35.340Z,10.53
2017-12-31T06:08:03.023Z,6.40
2017-12-31T06:10:30.878Z,3.60
2017-12-31T06:12:58.573Z,9.30
2017-12-31T06:15:26.278Z,13.33
2017-12-31T06:17:54.041Z,14.80
2017-12-31T06:20:21.742Z,14.80
2017-12-31T06:22:49.564Z,14.43
2017-12-31T06:25:17.266Z,7.43
2017-12-31T06:27:44.951Z,10.47
2017-12-31T06:30:12.726Z,11.80
2017-12-31T06:32:40.427Z,11.97
2017-12-31T06:35:08.252Z,13.60
2017-12-31T06:37:35.960Z,11.77
2017-12-31T06:40:03.759Z,10.83
2017-12-31T06:42:31.548Z,10.00
2017-12-31T06:44:59.329Z,14.90
2017-12-31T06:47:27.015Z,12.50
2017-12-31T06:49:54.752Z,11.00
2017-12-31T06:52:23.550Z,17.13
2017-12-31T06:54:51.331Z,15.90
2017-12-31T06:57:19.112Z,21.63
2017-12-31T06:59:52.630Z,2.60
2017-12-31T07:02:20.371Z,4.87
2017-12-31T07:04:48.212Z,12.50
2017-12-31T07:07:15.952Z,15.00
2017-12-31T07:09:43.827Z,14.10
2017-12-31T07:12:11.642Z,13.80
2017-12-31T07:14:39.734Z,13.80
2017-12-31T07:17:07.483Z,14.00
2017-12-31T07:19:35.298Z,11.60
2017-12-31T07:22:03.026Z,13.00
2017-12-31T07:24:30.829Z,29.17
2017-12-31T07:26:58.532Z,17.10
2017-12-31T07:29:26.585Z,13.73
2017-12-31T07:31:54.599Z,20.70
2017-12-31T07:34:24.195Z,17.73
2017-12-31T07:36:51.998Z,13.33
2017-12-31T07:39:19.720Z,9.63
2017-12-31T07:41:47.502Z,9.97
2017-12-31T07:44:15.273Z,6.90
2017-12-31T07:46:43.319Z,4.87
2017-12-31T07:49:11.151Z,6.77
2017-12-31T07:51:38.853Z,7.37
2017-12-31T07:54:06.718Z,6.50
2017-12-31T07:56:34.430Z,6.63
2017-12-31T07:59:02.184Z,6.07
2017-12-31T08:01:30.016Z,6.20
2017-12-31T08:03:57.795Z,7.33
2017-12-31T08:06:25.578Z,7.90
2017-12-31T08:08:53.449Z,11.77
2017-12-31T08:11:21.385Z,6.70
2017-12-31T08:13:49.180Z,5.30
2017-12-31T08:16:17.094Z,4.27
2017-12-31T08:18:44.824Z,2.63
2017-12-31T08:21:12.592Z,5.50
2017-12-31T08:23:40.296Z,4.80
2017-12-31T08:26:08.063Z,6.53
2017-12-31T08:28:35.873Z,11.50
2017-12-31T08:31:03.658Z,15.27
2017-12-31T08:33:31.461Z,10.47
2017-12-31T08:35:59.164Z,8.73
2017-12-31T08:38:26.998Z,5.97
2017-12-31T08:40:54.898Z,4.67
2017-12-31T08:43:22.826Z,4.03
2017-12-31T08:45:51.602Z,5.47
2017-12-31T08:48:19.437Z,6.00
2017-12-31T08:50:47.175Z,8.47
2017-12-31T08:53:14.958Z,9.20
2017-12-31T08:55:42.883Z,9.60
2017-12-31T08:58:11.287Z,8.63
2017-12-31T09:00:39.017Z,11.43
2017-12-31T09:03:07.029Z,7.90
2017-12-31T09:05:34.853Z,8.03
2017-12-31T09:08:02.577Z,8.00
2017-12-31T09:10:30.438Z,9.00
2017-12-31T09:12:58.392Z,7.27
2017-12-31T09:15:26.110Z,5.93
2017-12-31T09:17:53.894Z,5.03
2017-12-31T09:20:21.718Z,6.00
2017-12-31T09:22:49.635Z,5.83
2017-12-31T09:25:17.581Z,4.10
2017-12-31T09:27:45.363Z,3.50
2017-12-31T09:30:13.113Z,3.90
2017-12-31T09:32:41.089Z,2.57
2017-12-31T09:35:08.835Z,3.40
2017-12-31T09:37:36.663Z,3.47
2017-12-31T09:40:04.383Z,4.23
2017-12-31T09:42:32.301Z,3.73
2017-12-31T09:45:00.059Z,3.83
2017-12-31T09:47:27.792Z,3.63
2017-12-31T09:49:56.228Z,3.40
2017-12-31T09:52:24.832Z,3.80
2017-12-31T09:54:53.456Z,4.60
2017-12-31T09:57:21.510Z,3.73
2017-12-31T09:59:49.399Z,3.37
2017-12-31T10:02:17.379Z,3.00
2017-12-31T10:04:45.210Z,2.43
2017-12-31T10:07:13.021Z,4.40
2017-12-31T10:09:41.203Z,4.00
2017-12-31T10:12:09.113Z,3.47
2017-12-31T10:14:37.917Z,3.93
2017-12-31T10:17:05.683Z,4.23
2017-12-31T10:19:33.667Z,3.80
2017-12-31T10:22:01.642Z,3.37
2017-12-31T10:24:29.595Z,3.23
2017-12-31T10:26:57.712Z,3.30
2017-12-31T10:29:25.520Z,3.23
2017-12-31T10:31:53.827Z,4.57
2017-12-31T10:34:21.572Z,5.80
2017-12-31T10:36:49.462Z,5.10
2017-12-31T10:39:17.356Z,2.93
2017-12-31T10:41:45.676Z,3.60
2017-12-31T10:44:13.578Z,4.63
2017-12-31T10:46:41.431Z,4.70
2017-12-31T10:49:09.252Z,5.43
2017-12-31T10:51:37.022Z,4.00
2017-12-31T10:54:04.852Z,5.43
2017-12-31T10:56:32.628Z,5.33
2017-12-31T10:59:00.358Z,4.07
2017-12-31T11:01:28.091Z,4.40
2017-12-31T11:03:55.980Z,5.60
2017-12-31T11:06:23.740Z,5.37
2017-12-31T11:08:51.685Z,4.40
2017-12-31T11:11:19.390Z,3.53
2017-12-31T11:13:47.317Z,4.33
2017-12-31T11:16:15.175Z,3.93
2017-12-31T11:18:42.936Z,3.93
2017-12-31T11:21:10.694Z,4.90
2017-12-31T11:23:38.510Z,4.97
2017-12-31T11:26:06.220Z,3.23
2017-12-31T11:28:34.254Z,3.63
2017-12-31T11:31:02.850Z,3.57
2017-12-31T11:33:30.705Z,6.77
2017-12-31T11:35:58.483Z,5.60
2017-12-31T11:38:26.177Z,5.33
2017-12-31T11:40:53.920Z,4.50
2017-12-31T11:43:21.768Z,4.60
2017-12-31T11:45:49.546Z,3.90
2017-12-31T11:48:17.329Z,3.90
2017-12-31T11:50:45.171Z,4.17
2017-12-31T11:53:13.030Z,4.27
2017-12-31T11:55:40.810Z,4.07
2017-12-31T11:58:08.673Z,4.70
2017-12-31T12:00:36.458Z,3.93
2017-12-31T12:03:04.313Z,5.33
2017-12-31T12:05:32.016Z,5.10
2017-12-31T12:07:59.781Z,5.70
2017-12-31T12:10:28.302Z,4.60
2017-12-31T12:12:56.162Z,4.33
2017-12-31T12:15:24.718Z,4.77
2017-12-31T12:17:52.545Z,5.57
2017-12-31T12:20:20.387Z,5.77
2017-12-31T12:22:48.353Z,3.60
2017-12-31T12:25:16.394Z,3.90
2017-12-31T12:27:44.504Z,4.80
2017-12-31T12:30:13.482Z,4.57
2017-12-31T12:32:41.488Z,4.30
2017-12-31T12:35:09.329Z,4.00
2017-12-31T12:37:37.080Z,3.53
2017-12-31T12:40:04.901Z,3.70
2017-12-31T12:42:32.647Z,3.93
2017-12-31T12:45:00.474Z,3.60
2017-12-31T12:47:28.330Z,3.87
2017-12-31T12:49:56.235Z,4.40
2017-12-31T12:52:24.300Z,4.37
2017-12-31T12:54:52.063Z,4.00
2017-12-31T12:57:19.846Z,3.30
2017-12-31T12:59:47.624Z,7.50
2017-12-31T13:02:15.326Z,7.10
2017-12-31T13:04:43.120Z,4.63
2017-12-31T13:07:10.944Z,5.00
2017-12-31T13:09:38.734Z,4.17
2017-12-31T13:12:06.491Z,4.93
2017-12-31T13:14:34.188Z,5.77
2017-12-31T13:17:01.906Z,5.70
2017-12-31T13:19:29.649Z,5.07
2017-12-31T13:21:57.363Z,4.43
2017-12-31T13:24:25.120Z,5.40
2017-12-31T13:26:52.840Z,5.00
2017-12-31T13:29:20.545Z,5.10
2017-12-31T13:31:48.320Z,5.17
2017-12-31T13:34:16.006Z,3.30
2017-12-31T13:36:43.774Z,3.73
2017-12-31T13:39:11.513Z,2.20
2017-12-31T13:41:39.232Z,2.90
2017-12-31T13:44:07.036Z,2.47
2017-12-31T13:46:35.325Z,8.10
2017-12-31T13:49:04.222Z,3.60
2017-12-31T13:51:32.246Z,3.43
2017-12-31T13:54:00.001Z,3.90
2017-12-31T13:56:27.764Z,3.63
2017-12-31T13:58:55.745Z,2.47
2017-12-31T14:01:23.457Z,2.70
2017-12-31T14:03:51.225Z,1.97
2017-12-31T14:06:19.022Z,2.53
2017-12-31T14:08:46.770Z,1.90
2017-12-31T14:11:14.494Z,1.50
2017-12-31T14:13:42.215Z,1.63
2017-12-31T14:16:09.999Z,1.30
2017-12-31T14:18:37.708Z,1.20
2017-12-31T14:21:05.571Z,1.47
2017-12-31T14:23:33.319Z,1.73
2017-12-31T14:26:01.021Z,1.53
2017-12-31T14:28:28.814Z,2.57
2017-12-31T14:30:56.569Z,7.10
2017-12-31T14:33:24.351Z,12.77
2017-12-31T14:35:52.098Z,8.13
2017-12-31T14:38:19.788Z,6.63
2017-12-31T14:40:47.566Z,5.43
2017-12-31T14:43:15.356Z,4.90
2017-12-31T14:45:43.070Z,4.67
2017-12-31T14:48:10.874Z,3.50
2017-12-31T14:50:38.675Z,3.87
2017-12-31T14:53:06.457Z,3.27
2017-12-31T14:55:34.237Z,4.37
2017-12-31T14:58:02.190Z,3.57
2017-12-31T15:00:30.086Z,3.30
2017-12-31T15:02:57.948Z,2.23
2017-12-31T15:05:25.703Z,2.50
2017-12-31T15:07:53.474Z,2.00
2017-12-31T15:10:21.180Z,1.63
2017-12-31T15:12:48.976Z,1.80
2017-12-31T15:15:16.936Z,2.30
2017-12-31T15:17:44.768Z,4.03
2017-12-31T15:20:12.600Z,3.23
2017-12-31T15:22:40.310Z,3.80
2017-12-31T15:25:08.077Z,2.87
2017-12-31T15:27:35.816Z,3.00
2017-12-31T15:30:04.017Z,3.73
2017-12-31T15:32:31.771Z,3.53
2017-12-31T15:35:00.025Z,3.07
2017-12-31T15:37:27.802Z,3.30
2017-12-31T15:39:55.627Z,5.17
2017-12-31T15:42:24.199Z,3.80
2017-12-31T15:44:51.952Z,2.67
2017-12-31T15:47:19.747Z,1.90
2017-12-31T15:49:47.559Z,1.43
2017-12-31T15:52:15.315Z,1.60
2017-12-31T15:54:43.135Z,1.77
2017-12-31T15:57:10.928Z,2.00
2017-12-31T15:59:39.030Z,2.00
2017-12-31T16:02:07.022Z,3.30
2017-12-31T16:04:34.783Z,3.73
2017-12-31T16:07:02.874Z,3.10
2017-12-31T16:09:30.748Z,3.00
2017-12-31T16:11:58.546Z,4.43
2017-12-31T16:14:26.348Z,8.20
2017-12-31T16:16:54.154Z,8.77
2017-12-31T16:19:22.412Z,9.63
2017-12-31T16:21:50.252Z,7.10
2017-12-31T16:24:18.071Z,6.73
2017-12-31T16:26:45.880Z,5.90
2017-12-31T16:29:13.613Z,4.53
2017-12-31T16:31:41.337Z,2.97
2017-12-31T16:34:09.169Z,5.17
2017-12-31T16:36:37.092Z,4.20
2017-12-31T16:39:05.009Z,4.57
2017-12-31T16:41:32.824Z,5.17
2017-12-31T16:44:00.738Z,4.30
2017-12-31T16:46:28.466Z,3.70
2017-12-31T16:48:56.322Z,4.43
2017-12-31T16:51:24.103Z,6.40
2017-12-31T16:53:51.877Z,8.37
2017-12-31T16:56:19.577Z,7.30
2017-12-31T16:58:47.348Z,6.83
2017-12-31T17:01:15.071Z,4.83
2017-12-31T17:03:42.825Z,5.30
2017-12-31T17:06:10.653Z,4.47
2017-12-31T17:08:39.474Z,3.13
2017-12-31T17:11:07.293Z,5.30
2017-12-31T17:13:34.988Z,2.67
2017-12-31T17:16:02.780Z,4.00
2017-12-31T17:18:30.515Z,3.30
2017-12-31T17:20:58.220Z,3.73
2017-12-31T17:23:26.002Z,3.00
2017-12-31T17:25:53.821Z,3.60
2017-12-31T17:28:22.630Z,4.97
2017-12-31T17:30:50.434Z,6.07
2017-12-31T17:33:18.205Z,10.80
2017-12-31T17:35:45.927Z,7.67
2017-12-31T17:38:13.772Z,6.37
2017-12-31T17:40:41.519Z,4.77
2017-12-31T17:43:09.246Z,5.20
2017-12-31T17:45:37.131Z,10.43
2017-12-31T17:48:04.897Z,6.60
2017-12-31T17:50:32.725Z,6.20
2017-12-31T17:53:00.422Z,5.30
2017-12-31T17:55:28.126Z,4.73
2017-12-31T17:57:55.915Z,6.10
2017-12-31T18:00:23.733Z,5.80
2017-12-31T18:02:51.451Z,6.70
2017-12-31T18:05:19.237Z,8.60
2017-12-31T18:07:46.929Z,7.67
2017-12-31T18:10:15.653Z,9.00
2017-12-31T18:12:43.431Z,9.40
2017-12-31T18:15:11.172Z,13.30
2017-12-31T18:17:38.860Z,17.27
2017-12-31T18:20:07.532Z,20.57
2017-12-31T18:22:35.290Z,24.03
2017-12-31T18:25:02.991Z,18.30
2017-12-31T18:27:30.910Z,19.00
2017-12-31T18:29:59.152Z,18.57
2017-12-31T18:32:26.898Z,18.97
2017-12-31T18:34:54.679Z,14.77
2017-12-31T18:37:22.584Z,19.60
2017-12-31T18:39:50.338Z,20.10
2017-12-31T18:42:18.151Z,19.33
2017-12-31T18:44:46.101Z,16.77
2017-12-31T18:47:13.957Z,16.23
2017-12-31T18:49:51.007Z,19.77
2017-12-31T18:52:19.619Z,18.93
2017-12-31T18:54:48.905Z,29.00
2017-12-31T18:57:17.327Z,23.43
2017-12-31T18:59:47.215Z,21.67
2017-12-31T19:02:21.391Z,21.13
2017-12-31T19:04:50.926Z,21.90
2017-12-31T19:07:20.189Z,21.07
2017-12-31T19:09:49.394Z,23.50
2017-12-31T19:12:18.604Z,19.30
2017-12-31T19:14:47.041Z,14.93
2017-12-31T19:17:15.376Z,15.17
2017-12-31T19:19:43.212Z,10.07
2017-12-31T19:22:11.850Z,8.20
2017-12-31T19:24:40.206Z,6.73
2017-12-31T19:27:07.981Z,5.50
2017-12-31T19:29:35.829Z,5.30
2017-12-31T19:32:03.566Z,6.77
2017-12-31T19:34:32.258Z,7.30
2017-12-31T19:37:00.698Z,9.10
2017-12-31T19:39:28.653Z,6.90
2017-12-31T19:41:56.966Z,7.00
2017-12-31T19:44:25.750Z,6.70
2017-12-31T19:46:53.764Z,6.20
2017-12-31T19:49:21.989Z,5.80
2017-12-31T19:51:49.766Z,5.67
2017-12-31T19:54:17.961Z,4.57
2017-12-31T19:56:45.697Z,5.47
2017-12-31T19:59:13.378Z,5.73
2017-12-31T20:01:41.217Z,29.37
2017-12-31T20:04:08.966Z,34.07
2017-12-31T20:06:36.740Z,27.03
2017-12-31T20:09:04.623Z,29.10
2017-12-31T20:11:32.382Z,31.40
2017-12-31T20:14:00.145Z,27.73
2017-12-31T20:16:27.898Z,23.20
2017-12-31T20:18:56.076Z,24.10
2017-12-31T20:21:23.796Z,25.13
2017-12-31T20:23:51.604Z,24.30
2017-12-31T20:26:19.372Z,25.37
2017-12-31T20:28:47.063Z,24.13
2017-12-31T20:31:14.820Z,21.53
2017-12-31T20:33:42.551Z,23.47
2017-12-31T20:36:10.339Z,22.10
2017-12-31T20:38:38.083Z,24.00
2017-12-31T20:41:05.846Z,22.80
2017-12-31T20:43:33.597Z,20.30
2017-12-31T20:46:01.430Z,24.70
2017-12-31T20:48:29.157Z,28.17
2017-12-31T20:50:56.947Z,28.63
2017-12-31T20:53:24.704Z,25.20
2017-12-31T20:55:52.469Z,22.60
2017-12-31T20:58:20.300Z,19.33
2017-12-31T21:00:48.129Z,21.67
2017-12-31T21:03:15.981Z,21.43
2017-12-31T21:05:46.991Z,24.23
2017-12-31T21:08:15.464Z,21.73
2017-12-31T21:10:43.342Z,18.90
2017-12-31T21:13:11.037Z,13.23
2017-12-31T21:15:42.450Z,10.37
2017-12-31T21:18:10.219Z,6.77
2017-12-31T21:20:37.938Z,4.57
2017-12-31T21:23:05.637Z,4.23
2017-12-31T21:25:33.373Z,7.93
2017-12-31T21:28:01.191Z,24.47
2017-12-31T21:30:29.005Z,24.33
2017-12-31T21:32:56.887Z,20.60
2017-12-31T21:35:24.567Z,21.10
2017-12-31T21:37:52.350Z,20.93
2017-12-31T21:40:20.044Z,23.10
2017-12-31T21:42:47.762Z,20.87
2017-12-31T21:45:15.535Z,26.33
2017-12-31T21:47:43.335Z,22.97
2017-12-31T21:50:11.068Z,20.90
2017-12-31T21:52:39.009Z,22.13
2017-12-31T21:55:06.753Z,19.90
2017-12-31T21:57:34.527Z,16.07
2017-12-31T22:00:02.261Z,14.80
2017-12-31T22:02:29.986Z,11.43
2017-12-31T22:04:57.757Z,7.43
2017-12-31T22:07:25.530Z,6.00
2017-12-31T22:09:53.211Z,4.43
2017-12-31T22:12:20.955Z,3.47
2017-12-31T22:14:48.619Z,3.27
2017-12-31T22:17:16.362Z,3.60
2017-12-31T22:19:44.113Z,3.70
2017-12-31T22:22:11.886Z,3.63
2017-12-31T22:24:39.605Z,4.63
2017-12-31T22:27:07.358Z,2.90
2017-12-31T22:29:35.144Z,3.20
2017-12-31T22:32:02.940Z,14.90
2017-12-31T22:34:30.678Z,15.23
2017-12-31T22:36:58.444Z,11.43
2017-12-31T22:39:26.233Z,8.13
2017-12-31T22:42:00.882Z,7.10
2017-12-31T22:44:28.655Z,5.13
2017-12-31T22:46:56.392Z,2.70
2017-12-31T22:49:24.156Z,3.80
2017-12-31T22:51:51.837Z,3.33
2017-12-31T22:54:19.575Z,4.07
2017-12-31T22:56:47.246Z,3.97
2017-12-31T22:59:14.980Z,2.87
2017-12-31T23:01:42.657Z,4.33
2017-12-31T23:04:10.393Z,4.40
2017-12-31T23:06:38.132Z,5.00
2017-12-31T23:09:05.870Z,5.83
2017-12-31T23:11:33.805Z,6.67
2017-12-31T23:14:01.650Z,52.77
2017-12-31T23:16:29.346Z,68.97
2017-12-31T23:18:57.062Z,35.27
2017-12-31T23:21:24.852Z,11.00
2017-12-31T23:23:54.017Z,8.30
2017-12-31T23:26:21.978Z,8.30
2017-12-31T23:28:50.482Z,6.20
2017-12-31T23:31:18.938Z,5.90
2017-12-31T23:33:46.995Z,4.10
2017-12-31T23:36:15.123Z,4.50
2017-12-31T23:38:43.238Z,4.03
2017-12-31T23:41:11.168Z,3.83
2017-12-31T23:43:38.980Z,5.60
2017-12-31T23:46:06.718Z,4.30
2017-12-31T23:48:34.461Z,3.80
2017-12-31T23:51:02.215Z,3.80
2017-12-31T23:53:29.960Z,4.80
2017-12-31T23:55:57.727Z,5.63
2017-12-31T23:58:25.501Z,5.40
